createdAt,value
2018-07-04T00:01:59.209Z,3.53
2018-07-04T00:04:38.049Z,3.63
2018-07-04T00:07:16.926Z,3.13
2018-07-04T00:09:55.822Z,3.10
2018-07-04T00:12:34.723Z,3.20
2018-07-04T00:15:13.581Z,3.20
2018-07-04T00:17:52.598Z,3.50
2018-07-04T00:20:37.300Z,3.20
2018-07-04T00:23:16.102Z,3.20
2018-07-04T00:25:55.211Z,2.93
2018-07-04T00:28:34.177Z,3.20
2018-07-04T00:31:13.085Z,3.10
2018-07-04T00:33:52.046Z,3.47
2018-07-04T00:36:31.239Z,3.47
2018-07-04T00:39:10.289Z,3.50
2018-07-04T00:41:49.618Z,3.50
2018-07-04T00:44:29.437Z,3.30
2018-07-04T00:47:09.595Z,3.53
2018-07-04T00:49:49.817Z,3.70
2018-07-04T00:52:29.388Z,3.30
2018-07-04T00:55:02.654Z,3.50
2018-07-04T00:57:42.161Z,3.53
2018-07-04T01:00:23.251Z,3.27
2018-07-04T01:03:05.192Z,3.40
2018-07-04T01:09:46.631Z,3.33
2018-07-04T01:12:33.434Z,3.63
2018-07-04T01:15:13.445Z,4.17
2018-07-04T01:17:53.528Z,3.67
2018-07-04T01:20:38.811Z,3.37
2018-07-04T01:23:19.116Z,3.70
2018-07-04T01:26:03.197Z,3.43
2018-07-04T01:28:48.065Z,3.40
2018-07-04T01:31:28.085Z,3.50
2018-07-04T01:34:11.487Z,3.17
2018-07-04T01:36:51.203Z,3.53
2018-07-04T01:39:34.045Z,3.40
2018-07-04T01:42:16.970Z,3.27
2018-07-04T01:44:59.918Z,3.53
2018-07-04T01:47:39.455Z,3.90
2018-07-04T01:50:19.248Z,3.40
2018-07-04T01:52:59.092Z,3.90
2018-07-04T01:55:39.051Z,4.10
2018-07-04T01:58:18.546Z,4.13
2018-07-04T02:01:04.612Z,4.23
2018-07-04T02:03:44.427Z,3.70
2018-07-04T02:06:25.423Z,3.97
2018-07-04T02:11:59.540Z,3.77
2018-07-04T02:14:41.431Z,4.03
2018-07-04T02:17:22.228Z,4.53
2018-07-04T02:20:06.714Z,3.90
2018-07-04T02:22:46.445Z,3.77
2018-07-04T02:28:20.418Z,3.70
2018-07-04T02:31:00.122Z,4.10
2018-07-04T02:33:40.792Z,3.43
2018-07-04T02:36:20.551Z,4.20
2018-07-04T02:39:01.421Z,4.10
2018-07-04T02:41:40.745Z,3.93
2018-07-04T02:47:10.108Z,4.10
2018-07-04T02:49:49.783Z,4.20
2018-07-04T02:52:29.502Z,4.30
2018-07-04T02:55:09.429Z,4.10
2018-07-04T02:57:49.146Z,3.57
2018-07-04T03:00:30.115Z,3.80
2018-07-04T03:03:10.093Z,4.13
2018-07-04T03:05:49.874Z,3.73
2018-07-04T03:08:29.800Z,3.67
2018-07-04T03:11:10.820Z,4.20
2018-07-04T03:13:50.383Z,3.83
2018-07-04T03:16:29.598Z,3.53
2018-07-04T03:19:08.657Z,3.13
2018-07-04T03:21:47.786Z,3.50
2018-07-04T03:24:27.916Z,2.80
2018-07-04T03:27:07.862Z,2.93
2018-07-04T03:29:47.529Z,2.70
2018-07-04T03:32:26.706Z,3.17
2018-07-04T03:35:06.499Z,2.40
2018-07-04T03:37:46.988Z,2.50
2018-07-04T03:40:26.928Z,3.10
2018-07-04T03:43:12.862Z,3.00
2018-07-04T03:45:53.984Z,2.63
2018-07-04T03:48:36.898Z,3.07
2018-07-04T03:51:17.662Z,2.90
2018-07-04T05:17:57.499Z,3.30
2018-07-04T05:20:40.360Z,2.87
2018-07-04T05:23:19.825Z,3.47
2018-07-04T05:26:01.150Z,3.97
2018-07-04T05:28:52.818Z,3.63
2018-07-04T05:34:21.684Z,3.53
2018-07-04T05:37:03.319Z,3.57
2018-07-04T05:39:46.562Z,3.73
2018-07-04T05:42:25.884Z,3.43
2018-07-04T05:48:29.769Z,3.23
2018-07-04T05:54:27.864Z,3.00
2018-07-04T06:14:18.829Z,2.83
2018-07-04T06:16:58.106Z,2.83
2018-07-04T06:26:02.012Z,3.00
2018-07-04T06:37:42.890Z,2.70
2018-07-04T06:46:24.376Z,2.93
2018-07-04T07:13:55.424Z,2.60
2018-07-04T07:16:35.247Z,2.70
2018-07-04T07:19:15.592Z,3.00
2018-07-04T07:21:55.642Z,2.63
2018-07-04T07:28:51.594Z,2.60
2018-07-04T07:31:31.309Z,2.93
2018-07-04T07:37:13.688Z,2.27
2018-07-04T07:45:50.490Z,2.10
2018-07-04T07:51:37.092Z,2.20
2018-07-04T07:54:17.227Z,2.50
2018-07-04T07:56:59.136Z,2.37
2018-07-04T07:59:45.906Z,2.27
2018-07-04T08:02:33.213Z,2.00
2018-07-04T08:05:15.655Z,2.30
2018-07-04T08:07:58.595Z,2.30
2018-07-04T08:13:47.320Z,2.20
2018-07-04T08:16:40.339Z,2.10
2018-07-04T08:19:22.947Z,2.10
2018-07-04T08:22:12.031Z,2.10
2018-07-04T08:24:54.302Z,1.83
2018-07-04T08:27:40.795Z,2.00
2018-07-04T08:30:59.965Z,1.97
2018-07-04T08:38:44.269Z,1.90
2018-07-04T08:41:32.914Z,2.13
2018-07-04T08:45:56.574Z,2.10
2018-07-04T08:48:43.170Z,2.00
2018-07-04T08:51:28.240Z,2.10
2018-07-04T08:54:10.228Z,1.97
2018-07-04T08:59:44.116Z,2.20
2018-07-04T09:02:31.408Z,2.07
2018-07-04T09:05:20.253Z,2.00
2018-07-04T09:08:04.856Z,1.97
2018-07-04T09:10:49.610Z,2.10
2018-07-04T09:16:22.465Z,1.80
2018-07-04T09:19:06.565Z,1.93
2018-07-04T09:21:50.681Z,2.07
2018-07-04T09:24:34.436Z,1.90
2018-07-04T09:27:45.980Z,1.93
2018-07-04T09:30:28.510Z,1.87
2018-07-04T09:33:12.987Z,1.23
2018-07-04T09:38:58.157Z,1.73
2018-07-04T09:41:39.531Z,2.00
2018-07-04T09:44:22.500Z,1.70
2018-07-04T09:59:27.954Z,2.07
2018-07-04T10:09:23.718Z,2.20
2018-07-04T10:12:06.213Z,2.20
2018-07-04T10:48:05.472Z,2.63
2018-07-04T10:53:55.935Z,2.27
2018-07-04T10:57:13.718Z,2.70
2018-07-04T11:06:09.535Z,2.80
2018-07-04T11:08:53.958Z,2.47
2018-07-04T11:11:49.407Z,2.50
2018-07-04T11:20:41.025Z,2.90
2018-07-04T11:23:26.829Z,2.73
2018-07-04T11:26:13.914Z,2.80
2018-07-04T11:29:02.839Z,2.57
2018-07-04T11:35:39.634Z,2.83
2018-07-04T11:41:36.063Z,2.77
2018-07-04T11:50:26.757Z,2.87
2018-07-04T11:56:25.165Z,3.00
2018-07-04T11:59:01.952Z,2.57
2018-07-04T12:04:27.015Z,2.50
2018-07-04T12:07:08.800Z,2.77
2018-07-04T12:12:17.872Z,2.63
2018-07-04T12:20:03.907Z,2.43
2018-07-04T12:22:36.825Z,2.63
2018-07-04T12:25:06.185Z,3.00
2018-07-04T12:27:40.892Z,2.90
2018-07-04T12:30:11.700Z,2.40
2018-07-04T12:32:40.697Z,2.93
2018-07-04T12:35:14.577Z,2.60
2018-07-04T12:40:24.571Z,2.93
2018-07-04T12:43:11.577Z,2.90
2018-07-04T12:45:43.901Z,3.07
2018-07-04T12:49:01.609Z,2.80
2018-07-04T12:51:39.279Z,2.80
2018-07-04T12:54:13.237Z,2.90
2018-07-04T12:57:09.325Z,2.83
2018-07-04T13:00:01.965Z,2.90
2018-07-04T13:06:02.814Z,2.90
2018-07-04T13:08:51.276Z,3.00
2018-07-04T13:11:43.430Z,3.03
2018-07-04T13:14:25.444Z,2.67
2018-07-04T13:17:08.308Z,2.50
2018-07-04T13:28:35.780Z,4.80
2018-07-04T13:31:27.289Z,2.93
2018-07-04T13:34:18.793Z,2.50
2018-07-04T13:37:01.919Z,2.93
2018-07-04T13:39:52.608Z,2.40
2018-07-04T13:42:41.228Z,2.50
2018-07-04T13:45:29.641Z,2.80
2018-07-04T13:48:10.509Z,2.63
2018-07-04T13:50:52.884Z,2.40
2018-07-04T14:02:34.978Z,2.20
2018-07-04T14:17:50.791Z,2.30
2018-07-04T14:40:09.662Z,2.00
2018-07-04T14:43:05.597Z,2.00
2018-07-04T14:50:51.546Z,2.20
2018-07-04T14:53:35.046Z,2.40
2018-07-04T14:56:17.490Z,1.83
2018-07-04T15:02:02.003Z,2.00
2018-07-04T15:04:50.242Z,2.10
2018-07-04T15:07:31.412Z,2.33
2018-07-04T15:10:27.297Z,2.10
2018-07-04T15:13:13.538Z,2.50
2018-07-04T15:15:55.444Z,2.10
2018-07-04T15:18:39.082Z,2.20
2018-07-04T15:21:24.529Z,2.03
2018-07-04T15:24:06.675Z,2.47
2018-07-04T15:29:37.442Z,2.27
2018-07-04T15:32:23.380Z,2.43
2018-07-04T15:35:10.046Z,1.97
2018-07-04T15:37:50.607Z,2.20
2018-07-04T15:40:31.940Z,2.03
2018-07-04T15:43:14.885Z,2.60
2018-07-04T15:45:54.609Z,2.40
2018-07-04T15:50:47.492Z,2.33
2018-07-04T15:55:35.852Z,2.13
2018-07-04T15:58:20.734Z,1.93
2018-07-04T16:01:00.669Z,2.00
2018-07-04T16:03:43.406Z,2.30
2018-07-04T16:06:25.038Z,2.00
2018-07-04T16:09:09.455Z,2.53
2018-07-04T16:12:03.274Z,2.17
2018-07-04T16:14:43.936Z,2.30
2018-07-04T16:17:24.586Z,2.10
2018-07-04T16:20:05.025Z,2.27
2018-07-04T16:22:44.963Z,2.33
2018-07-04T16:25:25.997Z,1.80
2018-07-04T16:28:06.122Z,1.97
2018-07-04T16:30:45.736Z,2.10
2018-07-04T16:33:25.261Z,1.93
2018-07-04T16:36:04.685Z,1.97
2018-07-04T16:38:44.192Z,1.90
2018-07-04T16:41:24.538Z,2.20
2018-07-04T16:44:05.160Z,1.80
2018-07-04T16:46:45.131Z,2.00
2018-07-04T16:49:26.100Z,1.83
2018-07-04T16:52:07.146Z,2.20
2018-07-04T16:54:47.323Z,1.90
2018-07-04T16:57:29.896Z,1.90
2018-07-04T17:00:09.485Z,1.93
2018-07-04T17:02:49.158Z,1.70
2018-07-04T17:05:28.620Z,1.53
2018-07-04T17:08:08.159Z,1.80
2018-07-04T17:10:47.587Z,1.70
2018-07-04T17:13:26.821Z,2.10
2018-07-04T17:16:09.476Z,1.60
2018-07-04T17:18:49.694Z,1.80
2018-07-04T17:21:31.925Z,2.13
2018-07-04T17:24:14.370Z,2.20
2018-07-04T17:27:07.305Z,2.00
2018-07-04T17:29:52.618Z,1.63
2018-07-04T17:32:35.044Z,1.50
2018-07-04T17:35:11.381Z,1.70
2018-07-04T17:37:52.964Z,1.97
2018-07-04T17:40:34.239Z,1.60
2018-07-04T17:49:07.976Z,1.60
2018-07-04T17:57:48.110Z,1.60
2018-07-04T18:00:31.713Z,1.67
2018-07-04T18:03:22.763Z,1.50
2018-07-04T18:09:41.879Z,1.40
2018-07-04T18:15:36.567Z,1.47
2018-07-04T18:18:19.622Z,1.50
2018-07-04T18:21:03.647Z,1.63
2018-07-04T18:23:44.575Z,1.63
2018-07-04T18:26:24.203Z,1.50
2018-07-04T18:29:04.073Z,1.83
2018-07-04T18:31:45.225Z,1.40
2018-07-04T18:34:25.269Z,1.47
2018-07-04T18:37:05.779Z,1.50
2018-07-04T18:39:45.802Z,1.77
2018-07-04T18:42:27.032Z,1.87
2018-07-04T18:45:00.980Z,1.87
2018-07-04T18:47:40.727Z,1.90
2018-07-04T18:50:20.635Z,2.07
2018-07-04T18:52:54.454Z,1.70
2018-07-04T18:55:34.630Z,1.90
2018-07-04T18:58:14.466Z,1.93
2018-07-04T19:00:54.212Z,1.77
2018-07-04T19:03:34.187Z,2.13
2018-07-04T19:06:14.520Z,2.00
2018-07-04T19:09:06.206Z,1.90
2018-07-04T19:11:46.177Z,2.17
2018-07-04T19:14:25.733Z,1.83
2018-07-04T19:17:05.831Z,1.73
2018-07-04T19:19:47.116Z,1.80
2018-07-04T19:22:26.746Z,1.77
2018-07-04T19:25:04.624Z,1.83
2018-07-04T19:27:45.725Z,1.63
2018-07-04T19:30:25.546Z,1.77
2018-07-04T19:33:04.810Z,1.80
2018-07-04T19:35:44.055Z,2.00
2018-07-04T19:38:25.187Z,1.90
2018-07-04T19:41:04.566Z,1.73
2018-07-04T19:43:44.277Z,1.80
2018-07-04T19:46:23.705Z,1.80
2018-07-04T19:49:03.036Z,1.97
2018-07-04T19:51:42.078Z,2.00
2018-07-04T19:54:21.357Z,2.10
2018-07-04T19:57:00.441Z,2.07
2018-07-04T19:59:39.685Z,1.80
2018-07-04T20:02:18.964Z,1.70
2018-07-04T20:04:57.904Z,1.73
2018-07-04T20:07:37.479Z,1.83
2018-07-04T20:10:18.623Z,2.00
2018-07-04T20:12:59.725Z,1.93
2018-07-04T20:15:39.742Z,1.90
2018-07-04T20:18:20.741Z,1.80
2018-07-04T20:21:00.913Z,2.20
2018-07-04T20:23:40.706Z,1.73
2018-07-04T20:26:21.232Z,1.73
2018-07-04T20:29:00.763Z,2.10
2018-07-04T20:31:40.595Z,1.90
2018-07-04T20:34:17.093Z,1.93
2018-07-04T20:36:56.373Z,1.93
2018-07-04T20:39:29.914Z,1.90
2018-07-04T20:42:03.967Z,2.03
2018-07-04T20:44:43.182Z,2.40
2018-07-04T20:47:22.476Z,2.10
2018-07-04T20:50:01.479Z,2.40
2018-07-04T20:52:41.140Z,2.37
2018-07-04T20:55:20.161Z,1.90
2018-07-04T20:57:59.074Z,2.10
2018-07-04T21:00:38.436Z,2.10
2018-07-04T21:03:18.415Z,2.17
2018-07-04T21:05:57.867Z,2.10
2018-07-04T21:08:37.802Z,2.60
2018-07-04T21:11:13.612Z,2.57
2018-07-04T21:13:54.112Z,2.40
2018-07-04T21:16:28.637Z,2.40
2018-07-04T21:19:09.105Z,2.60
2018-07-04T21:21:48.369Z,2.40
2018-07-04T21:24:28.124Z,2.20
2018-07-04T21:27:08.642Z,2.40
2018-07-04T21:29:48.154Z,2.50
2018-07-04T21:32:27.276Z,2.30
2018-07-04T21:35:06.482Z,2.70
2018-07-04T21:37:45.525Z,2.30
2018-07-04T21:40:24.513Z,2.53
2018-07-04T21:43:03.764Z,2.53
2018-07-04T21:45:42.758Z,2.80
2018-07-04T21:48:22.330Z,2.70
2018-07-04T21:51:02.652Z,2.60
2018-07-04T21:53:41.799Z,2.70
2018-07-04T21:56:21.168Z,2.40
2018-07-04T21:59:00.467Z,2.70
2018-07-04T22:01:39.621Z,2.40
2018-07-04T22:04:19.439Z,2.80
2018-07-04T22:06:58.848Z,2.80
2018-07-04T22:09:39.423Z,2.40
2018-07-04T22:12:18.580Z,2.57
2018-07-04T22:14:58.051Z,2.80
2018-07-04T22:17:37.426Z,2.67
2018-07-04T22:20:11.681Z,2.77
2018-07-04T22:22:51.361Z,3.00
2018-07-04T22:25:30.831Z,3.07
2018-07-04T22:28:10.732Z,3.10
2018-07-04T22:30:50.330Z,3.03
2018-07-04T22:33:29.868Z,3.17
2018-07-04T22:36:09.557Z,3.00
2018-07-04T22:38:49.690Z,3.27
2018-07-04T22:41:29.318Z,3.13
2018-07-04T22:44:10.781Z,3.10
2018-07-04T22:46:51.118Z,3.60
2018-07-04T22:49:30.561Z,3.60
2018-07-04T22:52:10.206Z,3.47
2018-07-04T22:54:49.534Z,3.80
2018-07-04T22:57:30.046Z,3.67
2018-07-04T23:00:09.198Z,3.63
2018-07-04T23:02:48.412Z,3.90
2018-07-04T23:05:27.941Z,3.27
2018-07-04T23:08:09.946Z,3.13
2018-07-04T23:10:50.447Z,3.30
2018-07-04T23:13:32.387Z,3.63
2018-07-04T23:16:11.895Z,3.57
2018-07-04T23:21:37.900Z,3.60
2018-07-04T23:24:17.173Z,3.60
2018-07-04T23:26:56.580Z,4.53
2018-07-04T23:29:37.986Z,4.50
2018-07-04T23:32:18.177Z,3.87
2018-07-04T23:34:57.384Z,3.60
2018-07-04T23:37:38.299Z,4.40
2018-07-04T23:43:13.329Z,3.80
2018-07-04T23:45:53.676Z,3.90
2018-07-04T23:48:41.743Z,4.27
2018-07-04T23:51:21.742Z,4.17
2018-07-04T23:54:01.143Z,4.50
2018-07-04T23:56:48.437Z,4.60
2018-07-04T23:59:28.553Z,4.70
